createdAt,value
2023-07-07T00:01:20.535Z,20.78
2023-07-07T00:04:23.642Z,20.71
2023-07-07T00:07:26.855Z,20.66
2023-07-07T00:10:29.913Z,20.61
2023-07-07T00:13:32.726Z,20.59
2023-07-07T00:16:40.915Z,20.61
2023-07-07T00:19:44.824Z,20.56
2023-07-07T00:22:49.647Z,20.55
2023-07-07T00:26:12.113Z,20.55
2023-07-07T00:29:15.538Z,20.57
2023-07-07T00:32:20.123Z,20.58
2023-07-07T00:35:22.987Z,20.59
2023-07-07T00:38:26.112Z,20.62
2023-07-07T00:41:30.298Z,20.66
2023-07-07T00:44:59.715Z,20.63
2023-07-07T00:48:04.320Z,20.62
2023-07-07T00:51:06.810Z,20.64
2023-07-07T00:54:12.828Z,20.65
2023-07-07T00:57:15.690Z,20.61
2023-07-07T01:00:19.220Z,20.60
2023-07-07T01:03:29.214Z,20.62
2023-07-07T01:06:36.178Z,20.63
2023-07-07T01:09:39.374Z,20.64
2023-07-07T01:12:42.599Z,20.62
2023-07-07T01:15:55.286Z,20.60
2023-07-07T01:19:17.853Z,20.59
2023-07-07T01:22:49.009Z,20.54
2023-07-07T01:25:53.338Z,20.53
2023-07-07T01:29:09.704Z,20.47
2023-07-07T01:32:19.864Z,20.43
2023-07-07T01:35:24.603Z,20.43
2023-07-07T01:38:39.260Z,20.45
2023-07-07T01:41:48.909Z,20.41
2023-07-07T01:45:10.441Z,20.43
2023-07-07T01:48:29.909Z,20.40
2023-07-07T01:51:39.245Z,20.38
2023-07-07T01:54:46.738Z,20.37
2023-07-07T01:57:52.714Z,20.38
2023-07-07T02:00:58.311Z,20.34
2023-07-07T02:04:01.893Z,20.34
2023-07-07T02:07:05.723Z,20.33
2023-07-07T02:10:11.435Z,20.32
2023-07-07T02:13:14.304Z,20.28
2023-07-07T02:16:17.412Z,20.30
2023-07-07T02:19:20.907Z,20.30
2023-07-07T02:22:24.537Z,20.30
2023-07-07T02:25:27.926Z,20.26
2023-07-07T02:28:30.886Z,20.19
2023-07-07T02:31:34.147Z,20.20
2023-07-07T02:34:37.330Z,20.19
2023-07-07T02:37:40.483Z,20.14
2023-07-07T02:40:45.087Z,20.11
2023-07-07T02:43:51.802Z,20.10
2023-07-07T02:46:56.786Z,20.17
2023-07-07T02:49:59.274Z,20.16
2023-07-07T02:53:02.989Z,20.10
2023-07-07T02:56:07.776Z,20.08
2023-07-07T02:59:11.267Z,20.05
2023-07-07T03:02:15.812Z,20.05
2023-07-07T03:05:19.620Z,19.99
2023-07-07T03:08:23.023Z,19.98
2023-07-07T03:11:26.827Z,19.95
2023-07-07T03:14:32.277Z,19.90
2023-07-07T03:17:38.211Z,19.88
2023-07-07T03:20:49.978Z,19.85
2023-07-07T03:23:53.466Z,19.77
2023-07-07T03:26:57.397Z,19.78
2023-07-07T03:30:01.298Z,19.76
2023-07-07T03:33:05.591Z,19.75
2023-07-07T03:36:09.301Z,19.74
2023-07-07T03:39:14.132Z,19.76
2023-07-07T03:42:18.665Z,19.75
2023-07-07T03:45:23.395Z,19.76
2023-07-07T03:48:27.312Z,19.74
2023-07-07T03:51:37.025Z,19.78
2023-07-07T03:54:43.010Z,19.85
2023-07-07T03:57:47.432Z,19.89
2023-07-07T04:00:51.756Z,19.86
2023-07-07T04:03:59.302Z,19.89
2023-07-07T04:07:05.415Z,19.91
2023-07-07T04:10:09.981Z,19.91
2023-07-07T04:13:13.633Z,19.91
2023-07-07T04:16:17.965Z,19.89
2023-07-07T04:19:23.098Z,19.94
2023-07-07T04:22:27.682Z,20.01
2023-07-07T04:25:32.162Z,20.11
2023-07-07T04:28:38.312Z,20.17
2023-07-07T04:31:48.479Z,20.31
2023-07-07T04:34:52.840Z,20.33
2023-07-07T04:37:56.284Z,20.40
2023-07-07T04:41:14.481Z,20.62
2023-07-07T04:44:19.429Z,20.68
2023-07-07T04:47:24.625Z,20.79
2023-07-07T04:50:29.734Z,20.80
2023-07-07T04:53:35.580Z,20.91
2023-07-07T04:56:39.384Z,20.96
2023-07-07T04:59:43.399Z,21.19
2023-07-07T05:02:47.258Z,21.24
2023-07-07T05:05:52.868Z,21.17
2023-07-07T05:08:59.685Z,21.08
2023-07-07T05:12:03.765Z,21.03
2023-07-07T05:15:06.976Z,21.20
2023-07-07T05:18:12.774Z,21.20
2023-07-07T05:21:20.364Z,21.29
2023-07-07T05:24:23.915Z,21.36
2023-07-07T05:27:27.517Z,21.23
2023-07-07T05:30:33.292Z,21.09
2023-07-07T05:33:38.314Z,20.92
2023-07-07T05:36:42.835Z,20.97
2023-07-07T05:39:50.515Z,21.09
2023-07-07T05:42:56.054Z,21.06
2023-07-07T05:46:01.735Z,21.17
2023-07-07T05:49:09.445Z,21.13
2023-07-07T05:52:14.073Z,21.19
2023-07-07T05:55:37.347Z,21.06
2023-07-07T05:58:43.565Z,20.97
2023-07-07T06:01:48.081Z,21.21
2023-07-07T06:04:51.714Z,21.51
2023-07-07T06:07:56.373Z,21.67
2023-07-07T06:11:00.231Z,21.82
2023-07-07T06:14:03.477Z,21.85
2023-07-07T06:17:08.896Z,22.16
2023-07-07T06:20:12.604Z,21.83
2023-07-07T06:23:17.270Z,21.80
2023-07-07T06:26:20.928Z,21.62
2023-07-07T06:29:24.452Z,21.83
2023-07-07T06:32:29.606Z,21.89
2023-07-07T06:35:33.542Z,21.98
2023-07-07T06:38:39.569Z,22.27
2023-07-07T06:41:43.561Z,22.47
2023-07-07T06:44:46.142Z,22.90
2023-07-07T06:47:50.697Z,23.06
2023-07-07T06:50:53.845Z,22.86
2023-07-07T06:53:59.711Z,23.16
2023-07-07T06:57:02.735Z,23.33
2023-07-07T07:00:05.832Z,23.42
2023-07-07T07:03:12.015Z,23.44
2023-07-07T07:06:16.568Z,23.52
2023-07-07T07:09:25.333Z,23.59
2023-07-07T07:12:30.843Z,23.83
2023-07-07T07:15:34.856Z,23.90
2023-07-07T07:18:37.959Z,23.94
2023-07-07T07:21:41.488Z,23.83
2023-07-07T07:24:45.389Z,24.16
2023-07-07T07:27:48.818Z,25.29
2023-07-07T07:30:51.060Z,25.47
2023-07-07T07:33:56.219Z,25.39
2023-07-07T07:37:02.552Z,24.95
2023-07-07T07:40:07.494Z,24.63
2023-07-07T07:43:13.317Z,24.67
2023-07-07T07:46:16.460Z,26.25
2023-07-07T07:49:20.614Z,26.26
2023-07-07T07:52:24.067Z,26.43
2023-07-07T07:55:28.402Z,27.43
2023-07-07T07:58:31.372Z,30.87
2023-07-07T08:01:35.849Z,33.13
2023-07-07T08:04:42.168Z,31.16
2023-07-07T08:07:46.518Z,28.53
2023-07-07T08:10:58.588Z,29.76
2023-07-07T08:14:16.930Z,32.13
2023-07-07T08:17:20.166Z,32.46
2023-07-07T08:20:24.592Z,32.90
2023-07-07T08:23:28.776Z,33.43
2023-07-07T08:26:32.184Z,32.77
2023-07-07T08:29:35.718Z,32.11
2023-07-07T08:32:38.698Z,31.20
2023-07-07T08:35:44.111Z,32.07
2023-07-07T08:38:46.894Z,31.32
2023-07-07T08:41:58.894Z,30.21
2023-07-07T08:45:03.040Z,29.70
2023-07-07T08:48:38.712Z,28.42
2023-07-07T08:51:45.372Z,27.78
2023-07-07T08:55:12.085Z,28.04
2023-07-07T08:58:34.149Z,27.80
2023-07-07T09:01:47.375Z,27.45
2023-07-07T09:05:00.137Z,27.04
2023-07-07T09:08:03.443Z,26.21
2023-07-07T09:11:25.195Z,25.97
2023-07-07T09:14:29.023Z,26.34
2023-07-07T09:17:36.469Z,26.97
2023-07-07T09:20:42.256Z,27.32
2023-07-07T09:23:45.148Z,26.74
2023-07-07T09:26:50.276Z,26.85
2023-07-07T09:29:57.361Z,27.13
2023-07-07T09:33:00.310Z,26.93
2023-07-07T09:36:11.143Z,26.23
2023-07-07T09:39:25.443Z,26.23
2023-07-07T09:42:33.575Z,27.01
2023-07-07T09:45:43.041Z,27.62
2023-07-07T09:48:52.995Z,28.15
2023-07-07T09:52:16.257Z,28.47
2023-07-07T09:55:27.640Z,28.07
2023-07-07T09:58:30.348Z,28.31
2023-07-07T10:01:38.775Z,27.74
2023-07-07T10:04:49.914Z,27.48
2023-07-07T10:07:54.341Z,27.70
2023-07-07T10:11:43.924Z,27.83
2023-07-07T10:14:35.838Z,27.58
2023-07-07T10:17:55.288Z,27.77
2023-07-07T10:21:07.533Z,27.76
2023-07-07T10:24:17.972Z,27.55
2023-07-07T10:27:22.289Z,27.76
2023-07-07T10:30:27.678Z,27.52
2023-07-07T10:33:29.951Z,27.67
2023-07-07T10:36:33.470Z,27.70
2023-07-07T10:39:37.857Z,27.32
2023-07-07T10:42:40.578Z,27.87
2023-07-07T10:45:49.605Z,28.35
2023-07-07T10:48:56.989Z,28.29
2023-07-07T10:52:09.654Z,28.56
2023-07-07T10:55:26.483Z,28.69
2023-07-07T10:58:44.067Z,28.33
2023-07-07T11:02:00.233Z,28.20
2023-07-07T11:05:29.792Z,27.91
2023-07-07T11:08:34.109Z,27.71
2023-07-07T11:11:55.044Z,27.43
2023-07-07T11:15:04.560Z,27.29
2023-07-07T11:18:19.857Z,27.06
2023-07-07T11:21:28.526Z,26.89
2023-07-07T11:24:56.180Z,27.09
2023-07-07T11:28:29.197Z,27.37
2023-07-07T11:31:47.188Z,27.30
2023-07-07T11:35:00.519Z,27.44
2023-07-07T11:38:27.553Z,27.06
2023-07-07T11:41:33.182Z,26.86
2023-07-07T11:44:53.828Z,26.70
2023-07-07T11:48:04.873Z,26.97
2023-07-07T11:51:13.457Z,27.84
2023-07-07T11:54:15.600Z,28.73
2023-07-07T11:57:57.633Z,28.77
2023-07-07T12:01:07.292Z,28.89
2023-07-07T12:04:13.553Z,28.56
2023-07-07T12:07:28.031Z,28.79
2023-07-07T12:10:35.544Z,28.64
2023-07-07T12:13:42.589Z,28.53
2023-07-07T12:16:45.738Z,28.60
2023-07-07T12:19:50.498Z,29.02
2023-07-07T12:22:54.532Z,28.88
2023-07-07T12:26:29.095Z,29.07
2023-07-07T12:29:32.757Z,29.27
2023-07-07T12:32:36.174Z,29.27
2023-07-07T12:35:53.908Z,29.54
2023-07-07T12:38:58.723Z,29.31
2023-07-07T12:42:01.715Z,28.43
2023-07-07T12:45:17.985Z,28.46
2023-07-07T12:48:22.062Z,28.61
2023-07-07T12:51:24.662Z,28.62
2023-07-07T12:54:30.807Z,29.02
2023-07-07T12:57:33.051Z,28.95
2023-07-07T13:00:45.493Z,28.52
2023-07-07T13:03:56.529Z,28.82
2023-07-07T13:06:59.946Z,29.15
2023-07-07T13:10:11.144Z,28.97
2023-07-07T13:13:24.513Z,28.85
2023-07-07T13:16:26.501Z,28.90
2023-07-07T13:19:28.971Z,29.17
2023-07-07T13:22:42.379Z,29.25
2023-07-07T13:25:47.779Z,28.72
2023-07-07T13:28:53.761Z,28.80
2023-07-07T13:31:57.276Z,29.22
2023-07-07T13:35:00.811Z,29.04
2023-07-07T13:38:17.085Z,29.39
2023-07-07T13:41:20.124Z,29.03
2023-07-07T13:44:30.205Z,29.32
2023-07-07T13:47:33.734Z,28.60
2023-07-07T13:50:40.517Z,28.88
2023-07-07T13:53:42.616Z,28.81
2023-07-07T13:56:46.765Z,28.82
2023-07-07T13:59:50.350Z,28.89
2023-07-07T14:02:56.262Z,29.09
2023-07-07T14:06:09.709Z,28.99
2023-07-07T14:09:20.808Z,28.96
2023-07-07T14:12:27.327Z,28.57
2023-07-07T14:15:37.937Z,28.86
2023-07-07T14:18:49.147Z,28.76
2023-07-07T14:21:51.912Z,28.76
2023-07-07T14:24:56.521Z,28.74
2023-07-07T14:28:00.319Z,28.65
2023-07-07T14:31:05.922Z,28.56
2023-07-07T14:34:12.046Z,28.58
2023-07-07T14:37:35.320Z,28.82
2023-07-07T14:40:47.769Z,28.84
2023-07-07T14:44:02.403Z,28.57
2023-07-07T14:47:04.763Z,28.73
2023-07-07T14:50:08.735Z,28.26
2023-07-07T14:53:16.505Z,27.96
2023-07-07T14:56:30.888Z,27.41
2023-07-07T14:59:36.189Z,27.34
2023-07-07T15:02:38.823Z,27.60
2023-07-07T15:05:46.358Z,27.87
2023-07-07T15:08:58.444Z,27.82
2023-07-07T15:12:02.416Z,28.04
2023-07-07T15:15:05.813Z,28.20
2023-07-07T15:18:11.834Z,28.16
2023-07-07T15:21:23.843Z,28.03
2023-07-07T15:24:28.974Z,28.15
2023-07-07T15:27:31.115Z,28.27
2023-07-07T15:30:37.129Z,28.21
2023-07-07T15:33:39.401Z,28.40
2023-07-07T15:36:49.162Z,28.35
2023-07-07T15:39:51.976Z,28.26
2023-07-07T15:43:00.056Z,28.33
2023-07-07T15:46:02.628Z,28.36
2023-07-07T15:49:12.620Z,28.34
2023-07-07T15:52:20.043Z,28.22
2023-07-07T15:55:22.477Z,28.10
2023-07-07T15:58:24.968Z,28.14
2023-07-07T16:01:29.882Z,28.05
2023-07-07T16:04:32.197Z,28.15
2023-07-07T16:07:34.289Z,27.92
2023-07-07T16:10:36.675Z,28.10
2023-07-07T16:13:43.784Z,27.87
2023-07-07T16:16:47.672Z,27.87
2023-07-07T16:19:54.215Z,27.79
2023-07-07T16:23:03.198Z,27.78
2023-07-07T16:26:13.110Z,27.82
2023-07-07T16:29:21.834Z,27.81
2023-07-07T16:32:30.507Z,27.83
2023-07-07T16:35:41.038Z,27.71
2023-07-07T16:38:44.302Z,27.52
2023-07-07T16:41:52.015Z,27.59
2023-07-07T16:44:55.910Z,27.70
2023-07-07T16:48:02.173Z,27.71
2023-07-07T16:51:06.336Z,27.58
2023-07-07T16:54:11.288Z,27.50
2023-07-07T16:57:21.732Z,27.55
2023-07-07T17:00:27.780Z,27.37
2023-07-07T17:03:32.534Z,27.20
2023-07-07T17:06:35.498Z,27.09
2023-07-07T17:09:43.216Z,26.99
2023-07-07T17:12:48.838Z,26.99
2023-07-07T17:15:51.147Z,26.92
2023-07-07T17:18:56.495Z,26.92
2023-07-07T17:22:02.067Z,26.77
2023-07-07T17:25:13.846Z,26.52
2023-07-07T17:28:16.311Z,26.35
2023-07-07T17:31:25.691Z,26.19
2023-07-07T17:34:31.948Z,26.04
2023-07-07T17:37:38.857Z,25.90
2023-07-07T17:40:48.141Z,25.81
2023-07-07T17:43:57.980Z,25.84
2023-07-07T17:48:16.541Z,25.89
2023-07-07T17:50:42.862Z,25.89
2023-07-07T17:53:55.637Z,25.94
2023-07-07T17:57:00.316Z,25.93
2023-07-07T18:00:02.826Z,25.94
2023-07-07T18:03:32.028Z,25.99
2023-07-07T18:06:43.648Z,25.95
2023-07-07T18:09:49.662Z,25.99
2023-07-07T18:12:58.515Z,25.92
2023-07-07T18:16:08.988Z,25.90
2023-07-07T18:19:42.446Z,25.85
2023-07-07T18:22:39.387Z,25.67
2023-07-07T18:25:46.470Z,25.55
2023-07-07T18:29:15.997Z,25.54
2023-07-07T18:32:20.855Z,25.40
2023-07-07T18:38:30.047Z,25.17
2023-07-07T18:41:59.605Z,25.14
2023-07-07T18:45:07.941Z,25.13
2023-07-07T18:48:15.010Z,25.02
2023-07-07T18:51:24.786Z,24.99
2023-07-07T18:54:29.975Z,24.98
2023-07-07T18:58:07.818Z,24.82
2023-07-07T19:01:27.487Z,24.70
2023-07-07T19:04:40.559Z,24.58
2023-07-07T19:07:42.635Z,24.45
2023-07-07T19:10:47.829Z,24.36
2023-07-07T19:13:52.604Z,24.38
2023-07-07T19:16:56.709Z,24.37
2023-07-07T19:20:01.400Z,24.27
2023-07-07T19:23:27.089Z,24.14
2023-07-07T19:26:45.273Z,24.07
2023-07-07T19:29:49.580Z,24.01
